Latest Coastal Weather Observations for South Johnstone

IDQ60701

Issued at 12:31 am EST Sunday 11 December 2016 (issued every 10 minutes, with the page automatically refreshed every 10 minutes)

About coastal observations | Map of coastal stations | Coastal observations for QLD | Marine services | Other Formats
Station Details ID: 032037 Name: SOUTH JOHNSTONE EXP STN Lat: -17.61 Lon: 146.00 Height: 18.3 m
Data from the previous 72 hours. | See also: Recent months at South Johnstone
Date/Time
EST
Temp
°C
Wind Pressure Rain since
9am
mm
Weather Cloud Vis
km
Sea
Height
m
Swell
Dir  Spd
kts
Gust
kts
hPa Trend Height
m
Period
s
Dir
11/12:30am 25.5 ESE 4 5 1012.2 - 0.0 - - - - - - -
11/12:00am 25.9 SE 4 5 1012.4 - 0.0 - - - - - - -
 
Date/Time
EST
Temp
°C
Wind Pressure Rain since
9am
mm
Weather Cloud Vis
km
Sea
Height
m
Swell
Dir  Spd
kts
Gust
kts
hPa Trend Height
m
Period
s
Dir
10/11:30pm 25.9 SSE 2 4 1013.0 - 0.0 - - - - - - -
10/11:00pm 26.2 E 3 4 1013.2 - 0.0 - - - - - - -
10/10:30pm 26.4 SE 4 5 1013.3 - 0.0 - - - - - - -
10/10:00pm 26.7 SE 3 5 1013.2 - 0.0 - - - - - - -
10/09:30pm 26.4 CALM 0 0 1013.0 - 0.0 - - - - - - -
10/09:00pm 26.6 S 3 6 1012.9 - 0.0 - - - - - - -
10/08:30pm 26.4 SSE 1 3 1012.7 - 0.0 - - - - - - -
10/08:00pm 26.5 CALM 0 1 1012.4 - 0.0 - - - - - - -
10/07:30pm 26.6 ESE 3 6 1012.3 - 0.0 - - - - - - -
10/07:00pm 26.5 SSE 3 4 1012.0 - 0.0 - - - - - - -
10/06:30pm 27.5 ESE 5 7 1011.6 - 0.0 - - - - - - -
10/06:00pm 28.4 E 6 9 1011.1 - 0.0 - - - - - - -
10/05:30pm 29.1 ESE 6 10 1011.0 - 0.0 - - - - - - -
10/05:00pm 29.8 E 8 11 1010.7 - 0.0 - - - - - - -
10/04:30pm 30.3 E 8 12 1010.4 - 0.0 - - - - - - -
10/04:00pm 30.7 E 6 11 1010.4 - 0.0 - - - - - - -
10/03:30pm 30.6 E 8 12 1010.5 - 0.0 - - - - - - -
10/03:00pm 31.5 ESE 8 14 1010.7 - 0.0 - - - - - - -
10/02:30pm 31.1 ESE 8 14 1011.2 - 0.0 - - - - - - -
10/02:00pm 31.1 ESE 9 14 1011.4 - 0.0 - - - - - - -
10/01:30pm 31.1 E 8 14 1011.9 - 0.0 - - - - - - -
10/01:00pm 30.3 E 8 14 1012.1 - 0.0 - - - - - - -
10/12:30pm 29.7 ESE 8 13 1012.4 - 0.0 - - - - - - -
10/12:00pm 30.0 ESE 9 15 1012.4 - 0.0 - - - - - - -
10/11:30am 31.0 ESE 8 13 1012.6 - 0.0 - - - - - - -
10/11:00am 31.2 ESE 7 11 1012.8 - 0.0 - - - - - - -
10/10:30am 30.6 ESE 7 12 1012.8 - 0.0 - - - - - - -
10/10:00am 30.1 E 5 7 1012.8 - 0.0 - - - - - - -
10/09:30am 29.7 ENE 4 6 1013.0 - 0.0 - - - - - - -
10/09:00am 30.0 E 5 8 1012.7 - 0.0 - - - - - - -
10/08:30am 29.4 E 4 8 1012.7 - 0.0 - - - - - - -
10/08:00am 28.5 CALM 0 0 1012.8 - 0.0 - - - - - - -
10/07:30am 26.3 WSW 2 4 1012.6 - 0.0 - - - - - - -
10/07:00am 24.3 WSW 5 7 1012.5 - 0.0 - - - - - - -
10/06:30am 23.1 WSW 3 6 1012.3 - 0.0 - - - - - - -
10/06:00am 22.0 CALM 0 0 1012.1 - 0.0 - - - - - - -
10/05:30am 22.2 WNW 1 4 1011.9 - 0.0 - - - - - - -
10/05:00am 22.0 W 1 4 1011.6 - 0.0 - - - - - - -
10/04:30am 22.1 W 2 4 1011.0 - 0.0 - - - - - - -
10/04:00am 21.9 W 1 5 1010.5 - 0.0 - - - - - - -
10/03:30am 22.0 WSW 4 5 1010.3 - 0.0 - - - - - - -
10/03:00am 22.1 CALM 0 3 1010.3 - 0.0 - - - - - - -
10/02:30am 22.2 E 1 5 1010.6 - 0.0 - - - - - - -
10/02:00am 22.0 W 4 7 1010.4 - 0.0 - - - - - - -
10/01:30am 21.8 W 5 7 1010.7 - 0.0 - - - - - - -
10/01:00am 21.9 W 2 4 1011.1 - 0.0 - - - - - - -
10/12:30am 21.9 WNW 3 6 1011.2 - 0.0 - - - - - - -
10/12:00am 22.0 WNW 4 6 1011.6 - 0.0 - - - - - - -
 
Date/Time
EST
Temp
°C
Wind Pressure Rain since
9am
mm
Weather Cloud Vis
km
Sea
Height
m
Swell
Dir  Spd
kts
Gust
kts
hPa Trend Height
m
Period
s
Dir
09/11:30pm 22.1 W 4 6 1011.8 - 0.0 - - - - - - -
09/11:00pm 22.4 WNW 3 5 1012.0 - 0.0 - - - - - - -
09/10:30pm 22.5 WNW 3 6 1011.9 - 0.0 - - - - - - -
09/10:00pm 22.9 W 4 6 1012.0 - 0.0 - - - - - - -
09/09:30pm 23.3 WSW 5 8 1011.9 - 0.0 - - - - - - -
09/09:00pm 24.0 WSW 5 6 1011.6 - 0.0 - - - - - - -
09/08:30pm 24.1 CALM 0 0 1011.3 - 0.0 - - - - - - -
09/08:00pm 24.9 CALM 0 0 1011.1 - 0.0 - - - - - - -
09/07:30pm 25.3 CALM 0 0 1010.8 - 0.0 - - - - - - -
09/07:00pm 26.2 E 3 4 1010.3 - 0.0 - - - - - - -
09/06:30pm 27.1 ENE 4 6 1009.9 - 0.0 - - - - - - -
09/06:00pm 28.0 ENE 6 9 1009.6 - 0.0 - - - - - - -
09/05:30pm 28.6 NE 7 11 1009.5 - 0.0 - - - - - - -
09/05:00pm 29.5 E 6 10 1009.2 - 0.0 - - - - - - -
09/04:30pm 29.9 ENE 7 13 1008.9 - 0.0 - - - - - - -
09/04:00pm 30.5 E 8 12 1008.6 - 0.0 - - - - - - -
09/03:30pm 30.9 ENE 7 12 1008.5 - 0.0 - - - - - - -
09/03:00pm 31.3 E 7 13 1008.4 - 0.0 - - - - - - -
09/02:30pm 32.0 ESE 7 11 1008.6 - 0.0 - - - - - - -
09/02:00pm 31.2 ENE 8 13 1008.8 - 0.0 - - - - - - -
09/01:30pm 31.4 ENE 9 15 1009.0 - 0.0 - - - - - - -
09/01:00pm 31.8 ESE 7 10 1009.3 - 0.0 - - - - - - -
09/12:30pm 31.7 E 6 13 1009.9 - 0.0 - - - - - - -
09/12:00pm 31.6 E 6 10 1010.1 - 0.0 - - - - - - -
09/11:30am 31.1 E 6 9 1010.5 - 0.0 - - - - - - -
09/11:00am 31.4 ENE 5 10 1010.9 - 0.0 - - - - - - -
09/10:30am 30.8 E 2 8 1011.2 - 0.0 - - - - - - -
09/10:00am 29.4 E 3 6 1011.3 - 0.0 - - - - - - -
09/09:30am 30.2 ENE 5 8 1011.4 - 0.0 - - - - - - -
09/09:00am 29.0 NNE 3 6 1011.3 - 0.2 - - - - - - -
09/08:30am 28.6 SSW 2 5 1011.3 - 0.2 - - - - - - -
09/08:00am 26.9 SW 4 6 1011.4 - 0.2 - - - - - - -
09/07:30am 25.1 SW 5 6 1011.3 - 0.2 - - - - - - -
09/07:00am 23.9 CALM 0 3 1011.2 - 0.2 - - - - - - -
09/06:30am 22.4 CALM 0 1 1011.0 - 0.2 - - - - - - -
09/06:00am 21.8 CALM 0 0 1010.6 - 0.2 - - - - - - -
09/05:30am 21.7 W 4 6 1010.3 - 0.2 - - - - - - -
09/05:00am 21.9 W 3 5 1009.9 - 0.2 - - - - - - -
09/04:30am 22.4 WNW 3 5 1009.7 - 0.2 - - - - - - -
09/04:00am 22.5 WNW 2 4 1009.5 - 0.2 - - - - - - -
09/03:30am 22.6 WNW 1 4 1009.4 - 0.2 - - - - - - -
09/03:00am 22.6 W 3 6 1009.3 - 0.2 - - - - - - -
09/02:30am 22.8 CALM 0 0 1009.5 - 0.2 - - - - - - -
09/02:00am 22.9 CALM 0 1 1009.7 - 0.2 - - - - - - -
09/01:30am 23.2 WSW 4 6 1009.8 - 0.2 - - - - - - -
09/01:00am 23.2 CALM 0 0 1010.1 - 0.2 - - - - - - -
09/12:30am 23.3 W 4 6 1010.5 - 0.2 - - - - - - -
09/12:00am 23.5 WSW 5 6 1010.8 - 0.2 - - - - - - -
 
Date/Time
EST
Temp
°C
Wind Pressure Rain since
9am
mm
Weather Cloud Vis
km
Sea
Height
m
Swell
Dir  Spd
kts
Gust
kts
hPa Trend Height
m
Period
s
Dir
08/11:30pm 23.9 CALM 0 4 1011.2 - 0.2 - - - - - - -
08/11:00pm 24.7 WSW 4 5 1011.5 - 0.2 - - - - - - -
08/10:30pm 24.9 WSW 2 5 1011.5 - 0.2 - - - - - - -
08/10:00pm 25.0 CALM 0 1 1011.3 - 0.2 - - - - - - -
08/09:30pm 25.6 CALM 0 0 1011.2 - 0.2 - - - - - - -
08/09:00pm 25.7 CALM 0 3 1010.8 - 0.2 - - - - - - -
08/08:30pm 25.9 CALM 0 0 1010.7 - 0.2 - - - - - - -
08/08:00pm 25.7 CALM 0 0 1010.5 - 0.2 - - - - - - -
08/07:30pm 25.9 CALM 0 0 1010.1 - 0.2 - - - - - - -
08/07:00pm 26.5 ENE 4 5 1009.7 - 0.2 - - - - - - -
08/06:30pm 27.5 ENE 5 8 1009.4 - 0.2 - - - - - - -
08/06:00pm 28.1 ENE 5 9 1009.0 - 0.2 - - - - - - -
08/05:30pm 28.6 NE 6 10 1008.9 - 0.2 - - - - - - -
08/05:00pm 29.5 ENE 6 9 1008.7 - 0.2 - - - - - - -
08/04:30pm 29.3 NE 8 13 1008.7 - 0.2 - - - - - - -
08/04:00pm 29.6 ENE 6 9 1008.6 - 0.2 - - - - - - -
08/03:30pm 30.5 ENE 7 11 1008.6 - 0.2 - - - - - - -
08/03:00pm 30.4 ENE 8 12 1008.8 - 0.2 - - - - - - -
08/02:30pm 30.6 ENE 8 14 1009.1 - 0.2 - - - - - - -
08/02:00pm 31.3 ENE 8 14 1009.3 - 0.2 - - - - - - -
08/01:30pm 30.4 ENE 8 15 1009.5 - 0.2 - - - - - - -
08/01:00pm 30.8 NE 9 13 1009.7 - 0.2 - - - - - - -
08/12:30pm 31.9 NE 8 15 1009.8 - 0.2 - - - - - - -
08/12:00pm 30.8 ENE 8 14 1010.0 - 0.2 - - - - - - -
08/11:30am 30.3 NE 7 10 1010.6 - 0.2 - - - - - - -
08/11:00am 30.9 ENE 7 12 1010.9 - 0.2 - - - - - - -
08/10:30am 30.5 ENE 6 11 1011.2 - 0.2 - - - - - - -
08/10:00am 29.9 E 4 8 1011.3 - 0.2 - - - - - - -
08/09:30am 29.8 ENE 4 7 1011.4 - 0.2 - - - - - - -
08/09:00am 29.3 E 2 6 1011.5 - 0.4 - - - - - - -
08/08:30am 28.2 SSW 2 4 1011.7 - 0.4 - - - - - - -
08/08:00am 26.6 SW 4 6 1011.6 - 0.4 - - - - - - -
08/07:30am 25.6 WSW 5 6 1011.4 - 0.4 - - - - - - -
08/07:00am 24.9 SW 5 7 1011.3 - 0.4 - - - - - - -
08/06:30am 23.8 SW 2 4 1011.1 - 0.4 - - - - - - -
08/06:00am 23.0 WSW 5 6 1010.9 - 0.4 - - - - - - -
08/05:30am 23.1 WSW 5 7 1010.6 - 0.4 - - - - - - -
08/05:00am 23.6 WSW 4 5 1010.5 - 0.4 - - - - - - -
08/04:30am 24.0 SSW 1 4 1010.4 - 0.4 - - - - - - -
08/04:00am 23.9 SE 3 5 1010.4 - 0.4 - - - - - - -
08/03:30am 24.0 NW 1 5 1010.2 - 0.4 - - - - - - -
08/03:00am 23.9 WSW 3 5 1010.1 - 0.2 - - - - - - -
08/02:30am 24.1 WSW 2 5 1010.3 - 0.2 - - - - - - -
08/02:00am 24.2 CALM 0 0 1010.4 - 0.2 - - - - - - -
08/01:30am 24.1 W 2 5 1010.6 - 0.0 - - - - - - -
08/01:00am 24.3 CALM 0 0 1010.9 - 0.0 - - - - - - -

Other Formats:

Comma delimited format used in spreadsheet applications
http://www.bom.gov.au/fwo/IDQ60701/IDQ60701.95292.axf

JavaScript Object Notation format (JSON) in row-major order
http://www.bom.gov.au/fwo/IDQ60701/IDQ60701.95292.json